Terminal Aerodrome Forecast
Issued by NWS

Home | Current Version | Previous Version | Text Only | Print | Product List | Glossary On
Versions: 1 2 3 4 5 6 7 8 9 10 11 12 13 14 15 16 17 18 19 20 21 22 23 24 25 26
000
FTUS41 KAKQ 172340
TAFPHF
TAF
KPHF 172340Z 1800/1824 36012KT 2SM -SN BR SCT007 OVC012
     FM180300 35012G19KT 4SM -SN BR OVC025
     FM180600 34011KT P6SM BKN035
     FM180900 34012KT P6SM SCT080
     FM181600 27012KT P6SM SKC=

USA.gov is the U.S. government's official web portal to all federal, state and local government web resources and services.